createdAt,value
2022-10-01T00:01:17.380Z,99109.81
2022-10-01T00:03:45.020Z,98989.06
2022-10-01T00:06:18.388Z,99142.53
2022-10-01T00:08:48.991Z,99143.97
2022-10-01T00:11:19.574Z,99148.47
2022-10-01T00:13:46.652Z,99151.28
2022-10-01T00:16:19.075Z,99173.06
2022-10-01T00:18:46.827Z,99116.25
2022-10-01T00:21:16.494Z,99145.25
2022-10-01T00:23:43.534Z,99149.69
2022-10-01T00:26:18.563Z,99148.69
2022-10-01T00:28:46.906Z,98869.84
2022-10-01T00:31:15.907Z,99025.50
2022-10-01T00:33:42.747Z,99148.56
2022-10-01T00:36:10.947Z,99033.53
2022-10-01T00:38:38.626Z,99163.00
2022-10-01T00:41:05.658Z,98768.09
2022-10-01T00:43:35.376Z,99128.47
2022-10-01T00:46:07.725Z,99131.91
2022-10-01T00:48:42.411Z,99137.22
2022-10-01T00:51:09.015Z,99035.06
2022-10-01T00:53:35.547Z,99119.72
2022-10-01T00:56:02.867Z,99118.63
2022-10-01T00:58:29.933Z,99112.72
2022-10-01T01:00:57.291Z,99067.25
2022-10-01T01:03:24.678Z,99108.91
2022-10-01T01:05:51.415Z,98987.31
2022-10-01T01:08:18.790Z,99016.41
2022-10-01T01:11:07.838Z,99033.75
2022-10-01T01:13:44.847Z,99037.63
2022-10-01T01:16:35.592Z,99104.41
2022-10-01T01:19:12.301Z,99105.13
2022-10-01T01:21:46.172Z,99133.03
2022-10-01T01:24:50.557Z,99115.16
2022-10-01T01:27:31.308Z,99059.41
2022-10-01T01:30:10.302Z,99117.09
2022-10-01T01:33:03.295Z,99114.09
2022-10-01T01:35:34.231Z,99107.63
2022-10-01T01:38:05.633Z,99038.78
2022-10-01T01:40:36.736Z,99163.59
2022-10-01T01:43:08.658Z,99116.63
2022-10-01T01:45:39.959Z,99068.41
2022-10-01T01:48:09.842Z,99118.38
2022-10-01T01:50:43.664Z,99122.50
2022-10-01T01:53:11.281Z,99114.13
2022-10-01T01:55:38.885Z,99016.31
2022-10-01T01:58:05.392Z,99125.97
2022-10-01T02:00:31.868Z,99112.03
2022-10-01T02:02:59.155Z,99115.19
2022-10-01T02:05:43.252Z,99142.28
2022-10-01T02:08:23.462Z,98945.75
2022-10-01T02:11:04.428Z,99135.44
2022-10-01T02:13:40.167Z,99097.22
2022-10-01T02:16:18.855Z,99088.72
2022-10-01T02:19:03.791Z,99083.38
2022-10-01T02:21:42.049Z,98748.94
2022-10-01T02:24:32.000Z,99075.38
2022-10-01T02:27:03.596Z,99012.41
2022-10-01T02:29:30.929Z,99071.00
2022-10-01T02:31:57.463Z,99070.66
2022-10-01T02:34:28.752Z,99109.56
2022-10-01T02:36:57.100Z,99072.66
2022-10-01T02:39:26.441Z,99067.84
2022-10-01T02:41:55.582Z,98974.47
2022-10-01T02:44:30.233Z,98944.56
2022-10-01T02:47:05.303Z,99019.84
2022-10-01T02:49:37.115Z,99054.41
2022-10-01T02:52:11.339Z,99044.97
2022-10-01T02:54:45.297Z,99050.16
2022-10-01T02:57:26.967Z,98974.41
2022-10-01T03:00:00.040Z,99054.38
2022-10-01T03:02:31.551Z,99030.50
2022-10-01T03:04:59.162Z,99049.72
2022-10-01T03:07:27.123Z,99041.69
2022-10-01T03:09:53.790Z,98773.56
2022-10-01T03:12:20.381Z,98917.78
2022-10-01T03:14:47.706Z,99019.00
2022-10-01T03:17:15.261Z,98997.41
2022-10-01T03:19:42.553Z,98916.41
2022-10-01T03:22:12.970Z,99021.44
2022-10-01T03:24:39.520Z,99016.84
2022-10-01T03:27:06.641Z,98957.69
2022-10-01T03:29:33.158Z,99013.06
2022-10-01T03:32:00.104Z,98971.63
2022-10-01T03:34:27.003Z,99015.56
2022-10-01T03:36:53.656Z,99016.41
2022-10-01T03:39:20.414Z,99002.69
2022-10-01T03:41:47.108Z,99005.38
2022-10-01T03:44:13.789Z,98999.59
2022-10-01T03:46:40.263Z,98970.69
2022-10-01T03:49:06.760Z,98992.72
2022-10-01T03:51:33.766Z,98902.97
2022-10-01T03:54:00.541Z,98984.88
2022-10-01T03:56:27.426Z,98892.47
2022-10-01T03:58:54.342Z,98848.41
2022-10-01T04:01:21.550Z,98994.28
2022-10-01T04:03:49.213Z,98993.56
2022-10-01T04:06:16.283Z,98972.56
2022-10-01T04:08:42.789Z,98988.31
2022-10-01T04:11:09.864Z,98996.47
2022-10-01T04:13:36.444Z,99003.28
2022-10-01T04:16:04.489Z,98794.66
2022-10-01T04:18:31.722Z,98962.91
2022-10-01T04:20:58.470Z,98917.41
2022-10-01T04:23:25.982Z,98989.66
2022-10-01T04:25:52.665Z,98990.84
2022-10-01T04:28:19.532Z,98993.09
2022-10-01T04:30:46.370Z,98987.78
2022-10-01T04:33:15.697Z,98906.03
2022-10-01T04:35:43.483Z,98977.88
2022-10-01T04:38:16.943Z,98979.53
2022-10-01T04:40:43.617Z,98969.56
2022-10-01T04:43:11.343Z,98970.63
2022-10-01T04:45:38.137Z,98966.50
2022-10-01T04:48:05.266Z,98846.28
2022-10-01T04:50:34.515Z,98741.03
2022-10-01T04:53:01.048Z,98969.78
2022-10-01T04:55:27.541Z,98938.31
2022-10-01T04:57:54.063Z,98909.88
2022-10-01T05:00:24.371Z,99002.88
2022-10-01T05:02:51.243Z,98965.28
2022-10-01T05:05:19.729Z,98924.63
2022-10-01T05:07:46.753Z,98970.28
2022-10-01T05:10:19.632Z,98973.69
2022-10-01T05:12:48.088Z,98956.50
2022-10-01T05:15:16.538Z,98953.44
2022-10-01T05:17:43.106Z,98968.59
2022-10-01T05:20:16.798Z,98853.53
2022-10-01T05:22:44.969Z,98970.88
2022-10-01T05:25:11.746Z,98898.66
2022-10-01T05:27:40.674Z,98961.75
2022-10-01T05:30:09.572Z,98956.78
2022-10-01T05:32:36.583Z,98954.06
2022-10-01T05:35:04.756Z,98950.41
2022-10-01T05:37:31.306Z,98942.16
2022-10-01T05:39:57.761Z,98934.59
2022-10-01T05:42:24.655Z,98924.06
2022-10-01T05:44:51.181Z,98792.94
2022-10-01T05:47:18.118Z,98708.00
2022-10-01T05:49:44.670Z,98704.47
2022-10-01T05:52:12.988Z,98803.25
2022-10-01T05:54:39.656Z,98904.88
2022-10-01T05:57:07.973Z,98827.47
2022-10-01T05:59:35.057Z,98894.84
2022-10-01T06:02:02.262Z,98797.22
2022-10-01T06:04:28.843Z,98891.66
2022-10-01T06:06:56.230Z,98789.09
2022-10-01T06:09:22.782Z,98850.84
2022-10-01T06:11:49.586Z,98848.13
2022-10-01T06:14:16.859Z,98878.63
2022-10-01T06:16:43.431Z,98882.88
2022-10-01T06:19:10.631Z,98875.91
2022-10-01T06:21:37.613Z,98747.66
2022-10-01T06:24:04.611Z,98876.50
2022-10-01T06:26:31.363Z,98572.56
2022-10-01T06:28:57.871Z,98856.59
2022-10-01T06:31:25.173Z,98808.88
2022-10-01T06:33:51.950Z,98852.91
2022-10-01T06:36:18.604Z,98797.63
2022-10-01T06:38:49.379Z,98807.69
2022-10-01T06:41:15.902Z,98844.63
2022-10-01T06:43:43.172Z,98851.00
2022-10-01T06:46:10.570Z,98847.84
2022-10-01T06:48:37.329Z,98666.59
2022-10-01T06:51:04.051Z,98840.69
2022-10-01T06:53:30.838Z,98715.81
2022-10-01T06:55:57.724Z,98797.47
2022-10-01T06:58:26.439Z,98847.06
2022-10-01T07:01:02.182Z,98835.84
2022-10-01T07:03:31.253Z,98731.13
2022-10-01T07:06:05.494Z,98737.41
2022-10-01T07:08:33.197Z,98815.84
2022-10-01T07:11:03.428Z,98832.03
2022-10-01T07:13:30.131Z,98827.97
2022-10-01T07:15:57.048Z,98824.88
2022-10-01T07:18:23.759Z,98829.00
2022-10-01T07:20:50.329Z,98811.59
2022-10-01T07:23:17.422Z,98805.25
2022-10-01T07:25:47.329Z,98793.66
2022-10-01T07:28:17.972Z,98818.00
2022-10-01T07:30:59.807Z,98699.97
2022-10-01T07:33:26.580Z,98471.69
2022-10-01T07:35:53.144Z,98796.28
2022-10-01T07:38:20.036Z,98783.00
2022-10-01T07:40:53.882Z,98791.28
2022-10-01T07:43:21.048Z,98780.03
2022-10-01T07:45:49.626Z,98785.38
2022-10-01T07:48:16.198Z,98764.72
2022-10-01T07:50:45.294Z,98524.06
2022-10-01T07:53:12.262Z,98788.22
2022-10-01T07:55:38.774Z,98789.97
2022-10-01T07:58:06.062Z,98779.34
2022-10-01T08:00:35.286Z,98634.09
2022-10-01T08:03:01.987Z,98765.59
2022-10-01T08:05:32.695Z,98738.97
2022-10-01T08:08:01.292Z,98765.44
2022-10-01T08:10:28.597Z,98654.56
2022-10-01T08:13:06.098Z,98626.41
2022-10-01T08:15:32.601Z,98695.88
2022-10-01T08:18:05.147Z,98765.16
2022-10-01T08:20:32.035Z,98757.88
2022-10-01T08:23:06.730Z,98764.22
2022-10-01T08:25:33.309Z,98724.50
2022-10-01T08:28:02.676Z,98771.53
2022-10-01T08:30:30.438Z,98756.03
2022-10-01T08:32:58.325Z,98722.88
2022-10-01T08:35:26.014Z,98768.53
2022-10-01T08:37:56.112Z,98731.19
2022-10-01T08:40:23.874Z,98754.75
2022-10-01T08:43:29.080Z,98758.75
2022-10-01T08:46:00.458Z,98753.41
2022-10-01T08:49:03.873Z,98756.59
2022-10-01T08:51:48.343Z,98584.69
2022-10-01T08:54:32.569Z,98676.69
2022-10-01T08:57:06.471Z,98710.66
2022-10-01T08:59:47.125Z,98753.78
2022-10-01T09:02:25.394Z,98706.28
2022-10-01T09:05:02.308Z,98726.09
2022-10-01T09:07:45.099Z,98756.66
2022-10-01T09:10:42.105Z,98702.78
2022-10-01T09:13:14.308Z,98754.16
2022-10-01T09:15:46.709Z,98759.13
2022-10-01T09:18:42.933Z,98761.81
2022-10-01T09:21:20.872Z,98770.09
2022-10-01T09:24:25.137Z,98598.13
2022-10-01T09:26:53.721Z,98764.41
2022-10-01T09:29:55.655Z,98721.91
2022-10-01T09:32:33.017Z,98762.56
2022-10-01T09:35:07.337Z,98738.09
2022-10-01T09:37:41.147Z,98750.94
2022-10-01T09:40:38.527Z,98747.38
2022-10-01T09:43:08.190Z,98729.41
2022-10-01T09:45:35.479Z,98750.50
2022-10-01T09:48:18.976Z,98741.72
2022-10-01T09:50:58.235Z,98740.53
2022-10-01T09:53:35.636Z,98738.09
2022-10-01T09:56:10.666Z,98736.81
2022-10-01T09:58:42.902Z,98678.88
2022-10-01T10:01:21.820Z,98411.03
2022-10-01T10:03:56.557Z,98731.84
2022-10-01T10:06:27.793Z,98710.53
2022-10-01T10:08:56.929Z,98742.94
2022-10-01T10:11:27.174Z,98700.22
2022-10-01T10:14:00.166Z,98758.38
2022-10-01T10:16:35.296Z,98747.31
2022-10-01T10:19:14.555Z,98752.13
2022-10-01T10:21:52.038Z,98719.50
2022-10-01T10:24:26.487Z,98755.97
2022-10-01T10:26:58.934Z,98763.53
2022-10-01T10:29:31.003Z,98757.31
2022-10-01T10:31:59.343Z,98827.81
2022-10-01T10:34:42.160Z,98753.69
2022-10-01T10:37:18.026Z,98756.47
2022-10-01T10:39:51.197Z,98563.25
2022-10-01T10:42:18.893Z,98652.09
2022-10-01T10:44:49.296Z,98691.81
2022-10-01T10:47:19.167Z,98758.31
2022-10-01T10:49:56.872Z,98718.63
2022-10-01T10:52:36.115Z,98756.06
2022-10-01T10:55:25.131Z,98566.72
2022-10-01T10:57:57.354Z,98755.88
2022-10-01T11:00:25.908Z,98491.59
2022-10-01T11:02:56.940Z,98759.69
2022-10-01T11:05:30.068Z,98759.56
2022-10-01T11:08:06.591Z,98764.19
2022-10-01T11:10:42.003Z,98765.97
2022-10-01T11:13:40.653Z,98792.25
2022-10-01T11:16:19.181Z,98672.53
2022-10-01T11:19:15.547Z,98768.16
2022-10-01T11:22:19.459Z,98764.16
2022-10-01T11:25:26.137Z,98761.91
2022-10-01T11:27:59.180Z,98805.53
2022-10-01T11:30:33.690Z,98638.97
2022-10-01T11:33:27.051Z,98676.19
2022-10-01T11:36:02.987Z,98651.56
2022-10-01T11:38:43.661Z,98681.91
2022-10-01T11:41:23.783Z,98461.91
2022-10-01T11:43:54.818Z,98648.69
2022-10-01T11:46:33.152Z,98553.91
2022-10-01T11:49:19.083Z,98657.16
2022-10-01T11:51:59.810Z,98616.25
2022-10-01T11:54:30.455Z,98668.16
2022-10-01T11:57:17.481Z,98638.88
2022-10-01T11:59:50.496Z,98601.69
2022-10-01T12:02:26.737Z,98643.66
2022-10-01T12:05:00.361Z,98660.13
2022-10-01T12:07:49.616Z,98662.81
2022-10-01T12:10:33.443Z,98675.66
2022-10-01T12:13:29.093Z,98678.81
2022-10-01T12:16:23.496Z,98708.78
2022-10-01T12:18:57.520Z,98709.47
2022-10-01T12:21:29.815Z,98500.50
2022-10-01T12:24:03.374Z,98737.22
2022-10-01T12:26:45.125Z,98710.81
2022-10-01T12:29:24.151Z,98729.16
2022-10-01T12:32:28.407Z,98731.75
2022-10-01T12:35:20.049Z,98763.13
2022-10-01T12:37:55.866Z,98745.47
2022-10-01T12:40:45.265Z,98728.09
2022-10-01T12:43:50.123Z,98757.19
2022-10-01T12:46:41.472Z,98757.34
2022-10-01T12:49:24.978Z,98812.13
2022-10-01T12:52:15.375Z,98747.50
2022-10-01T12:54:58.572Z,98697.66
2022-10-01T12:58:08.240Z,98753.03
2022-10-01T13:01:02.653Z,98750.22
2022-10-01T13:04:03.062Z,98711.88
2022-10-01T13:06:44.839Z,98745.53
2022-10-01T13:09:37.574Z,98672.81
2022-10-01T13:12:26.378Z,98754.72
2022-10-01T13:14:54.106Z,98664.16
2022-10-01T13:17:49.422Z,98800.09
2022-10-01T13:21:05.642Z,98720.50
2022-10-01T13:23:43.721Z,98733.91
2022-10-01T13:26:27.876Z,98735.56
2022-10-01T13:29:16.084Z,98728.28
2022-10-01T13:31:57.300Z,98640.72
2022-10-01T13:34:46.263Z,98656.38
2022-10-01T13:37:14.020Z,98572.19
2022-10-01T13:39:43.565Z,98688.63
2022-10-01T13:42:21.093Z,98639.88
2022-10-01T13:44:53.585Z,98734.41
2022-10-01T13:47:21.566Z,98770.63
2022-10-01T13:49:57.642Z,98698.53
2022-10-01T13:52:25.193Z,98742.28
2022-10-01T13:54:55.219Z,98732.38
2022-10-01T13:57:26.963Z,98730.03
2022-10-01T14:00:02.724Z,98691.22
2022-10-01T14:02:37.757Z,98690.91
2022-10-01T14:05:30.597Z,98726.47
2022-10-01T14:08:14.444Z,98737.03
2022-10-01T14:11:26.944Z,98721.13
2022-10-01T14:14:15.748Z,98724.88
2022-10-01T14:16:46.480Z,98661.25
2022-10-01T14:19:21.549Z,98712.75
2022-10-01T14:21:56.976Z,98724.13
2022-10-01T14:24:39.936Z,98726.47
2022-10-01T14:27:22.071Z,98639.78
2022-10-01T14:29:57.551Z,98723.22
2022-10-01T14:32:36.167Z,98729.38
2022-10-01T14:35:27.764Z,98602.31
2022-10-01T14:38:00.331Z,98579.72
2022-10-01T14:40:47.858Z,98715.75
2022-10-01T14:43:31.317Z,98721.22
2022-10-01T14:46:03.970Z,98786.06
2022-10-01T14:48:32.885Z,98728.66
2022-10-01T14:51:02.490Z,98724.72
2022-10-01T14:53:32.174Z,98728.97
2022-10-01T14:56:06.993Z,98714.72
2022-10-01T14:58:38.552Z,98701.16
2022-10-01T15:01:06.032Z,98730.34
2022-10-01T15:03:38.712Z,98661.09
2022-10-01T15:06:12.356Z,98733.97
2022-10-01T15:08:41.812Z,98608.38
2022-10-01T15:11:14.343Z,98593.19
2022-10-01T15:13:44.244Z,98706.16
2022-10-01T15:16:14.047Z,98649.53
2022-10-01T15:18:54.728Z,98579.31
2022-10-01T15:21:27.057Z,98723.13
2022-10-01T15:23:54.244Z,98721.16
2022-10-01T15:26:27.510Z,98523.69
2022-10-01T15:29:05.468Z,98721.66
2022-10-01T15:31:33.791Z,98715.75
2022-10-01T15:34:04.317Z,98732.38
2022-10-01T15:36:32.467Z,98716.63
2022-10-01T15:39:01.688Z,98618.28
2022-10-01T15:41:32.781Z,98725.16
2022-10-01T15:44:03.428Z,98579.84
2022-10-01T15:46:33.606Z,98598.38
2022-10-01T15:49:12.430Z,98716.50
2022-10-01T15:52:10.524Z,98726.03
2022-10-01T15:54:39.184Z,98721.31
2022-10-01T15:57:06.848Z,98695.50
2022-10-01T15:59:34.841Z,98720.81
2022-10-01T16:02:07.501Z,98716.88
2022-10-01T16:04:34.441Z,98588.78
2022-10-01T16:07:00.981Z,98708.94
2022-10-01T16:09:28.589Z,98733.09
2022-10-01T16:12:10.243Z,98708.44
2022-10-01T16:14:55.830Z,98703.94
2022-10-01T16:17:29.121Z,98673.47
2022-10-01T16:19:58.443Z,98775.66
2022-10-01T16:22:33.752Z,98699.94
2022-10-01T16:25:03.202Z,98541.16
2022-10-01T16:27:47.580Z,98736.00
2022-10-01T16:30:22.624Z,98378.09
2022-10-01T16:32:49.637Z,98637.19
2022-10-01T16:35:19.187Z,98679.06
2022-10-01T16:37:47.499Z,98587.66
2022-10-01T16:40:16.416Z,98706.59
2022-10-01T16:42:44.712Z,98550.53
2022-10-01T16:45:22.503Z,98632.81
2022-10-01T16:47:49.014Z,98667.41
2022-10-01T16:50:18.339Z,98629.06
2022-10-01T16:52:45.754Z,98587.50
2022-10-01T16:55:17.209Z,98694.41
2022-10-01T16:57:44.338Z,98673.66
2022-10-01T17:00:15.238Z,98705.53
2022-10-01T17:02:42.971Z,98700.56
2022-10-01T17:05:17.632Z,98696.94
2022-10-01T17:07:45.169Z,98679.28
2022-10-01T17:10:16.384Z,98602.75
2022-10-01T17:12:44.068Z,98500.22
2022-10-01T17:15:12.825Z,98693.41
2022-10-01T17:17:39.279Z,98697.31
2022-10-01T17:20:05.896Z,98700.53
2022-10-01T17:22:32.436Z,98695.72
2022-10-01T17:24:58.969Z,98699.59
2022-10-01T17:27:25.492Z,98543.31
2022-10-01T17:29:52.207Z,98569.91
2022-10-01T17:32:18.812Z,98691.53
2022-10-01T17:34:46.009Z,98606.69
2022-10-01T17:37:13.266Z,98689.72
2022-10-01T17:39:42.177Z,98683.47
2022-10-01T17:42:11.649Z,98611.47
2022-10-01T17:44:38.220Z,98678.56
2022-10-01T17:47:04.783Z,98609.59
2022-10-01T17:49:31.324Z,98648.91
2022-10-01T17:51:57.803Z,98679.59
2022-10-01T17:54:25.249Z,98442.97
2022-10-01T17:56:55.893Z,98684.63
2022-10-01T17:59:22.551Z,98685.31
2022-10-01T18:01:49.238Z,98576.59
2022-10-01T18:04:17.980Z,98679.84
2022-10-01T18:06:46.866Z,98614.91
2022-10-01T18:09:13.415Z,98651.22
2022-10-01T18:11:40.270Z,98678.69
2022-10-01T18:14:07.712Z,98556.31
2022-10-01T18:16:35.391Z,98669.50
2022-10-01T18:21:50.992Z,98585.44
2022-10-01T18:24:17.703Z,98657.44
2022-10-01T18:26:45.587Z,98638.16
2022-10-01T18:29:25.584Z,98662.13
2022-10-01T18:31:55.898Z,98541.50
2022-10-01T18:34:29.837Z,98490.56
2022-10-01T18:37:05.854Z,98653.16
2022-10-01T18:39:38.413Z,98655.19
2022-10-01T18:42:14.849Z,98657.56
2022-10-01T18:44:42.561Z,98656.16
2022-10-01T18:47:26.666Z,98699.88
2022-10-01T18:50:02.069Z,98646.94
2022-10-01T18:52:34.662Z,98649.78
2022-10-01T18:55:27.335Z,98636.84
2022-10-01T18:58:25.624Z,98644.28
2022-10-01T19:01:03.396Z,98640.38
2022-10-01T19:03:35.711Z,98637.09
2022-10-01T19:06:08.210Z,98631.66
2022-10-01T19:08:51.488Z,98610.69
2022-10-01T19:11:35.593Z,98735.31
2022-10-01T19:14:56.614Z,98625.63
2022-10-01T19:17:44.817Z,98618.53
2022-10-01T19:20:35.071Z,98616.28
2022-10-01T19:23:19.725Z,98584.47
2022-10-01T19:26:35.784Z,98611.38
2022-10-01T19:29:14.678Z,98616.56
2022-10-01T19:31:59.353Z,98610.44
2022-10-01T19:34:50.195Z,98538.59
2022-10-01T19:37:37.251Z,98612.56
2022-10-01T19:40:13.884Z,98603.22
2022-10-01T19:42:48.001Z,98594.38
2022-10-01T19:45:20.592Z,98594.03
2022-10-01T19:47:58.008Z,98588.63
2022-10-01T19:50:31.548Z,98584.38
2022-10-01T19:52:59.379Z,98592.72
2022-10-01T19:55:34.019Z,98542.38
2022-10-01T19:58:16.740Z,98589.09
2022-10-01T20:00:47.629Z,98583.31
2022-10-01T20:03:25.946Z,98581.19
2022-10-01T20:06:01.001Z,98243.00
2022-10-01T20:08:39.880Z,98584.09
2022-10-01T20:11:15.582Z,98582.09
2022-10-01T20:14:35.154Z,98588.25
2022-10-01T20:17:30.558Z,98579.25
2022-10-01T20:20:24.574Z,98332.06
2022-10-01T20:23:17.063Z,98541.03
2022-10-01T20:25:53.613Z,98579.28
2022-10-01T20:28:51.741Z,98683.59
2022-10-01T20:31:27.343Z,98574.69
2022-10-01T20:34:33.805Z,98590.34
2022-10-01T20:37:13.458Z,98592.72
2022-10-01T20:39:54.588Z,98592.72
2022-10-01T20:42:30.525Z,98611.44
2022-10-01T20:44:57.309Z,98595.78
2022-10-01T20:47:31.267Z,98591.97
2022-10-01T20:50:09.542Z,98606.44
2022-10-01T20:53:10.296Z,98584.47
2022-10-01T20:55:41.347Z,98567.47
2022-10-01T20:58:21.068Z,98562.97
2022-10-01T21:00:52.365Z,98503.59
2022-10-01T21:03:36.112Z,98505.69
2022-10-01T21:06:13.646Z,98560.31
2022-10-01T21:09:08.002Z,98570.56
2022-10-01T21:11:39.705Z,98562.69
2022-10-01T21:14:20.664Z,98559.72
2022-10-01T21:17:15.482Z,98434.94
2022-10-01T21:20:15.476Z,98509.97
2022-10-01T21:23:11.529Z,98623.38
2022-10-01T21:25:50.147Z,98551.97
2022-10-01T21:28:46.970Z,98553.06
2022-10-01T21:31:40.499Z,98541.84
2022-10-01T21:34:35.656Z,98528.47
2022-10-01T21:37:14.304Z,98467.75
2022-10-01T21:40:14.964Z,98514.81
2022-10-01T21:42:53.579Z,98509.03
2022-10-01T21:45:28.664Z,98504.56
2022-10-01T21:48:01.488Z,98496.78
2022-10-01T21:50:42.611Z,98367.94
2022-10-01T21:53:28.876Z,98493.72
2022-10-01T21:56:14.035Z,98491.25
2022-10-01T21:59:09.773Z,98506.41
2022-10-01T22:01:54.227Z,98502.50
2022-10-01T22:04:46.164Z,98573.88
2022-10-01T22:07:23.974Z,98341.78
2022-10-01T22:10:09.256Z,98502.78
2022-10-01T22:12:40.338Z,98382.47
2022-10-01T22:15:31.371Z,98466.44
2022-10-01T22:18:02.020Z,98507.84
2022-10-01T22:20:32.225Z,98505.06
2022-10-01T22:23:01.395Z,98514.06
2022-10-01T22:25:30.484Z,98514.88
2022-10-01T22:28:07.399Z,98514.66
2022-10-01T22:30:39.239Z,98523.16
2022-10-01T22:33:12.879Z,98531.97
2022-10-01T22:35:47.123Z,98525.28
2022-10-01T22:38:39.974Z,98567.59
2022-10-01T22:41:23.981Z,98590.66
2022-10-01T22:43:50.851Z,98475.69
2022-10-01T22:47:01.209Z,98563.97
2022-10-01T22:49:46.306Z,98535.28
2022-10-01T22:52:20.665Z,98530.00
2022-10-01T22:55:11.057Z,98519.88
2022-10-01T22:57:52.698Z,98513.56
2022-10-01T23:00:21.289Z,98521.53
2022-10-01T23:03:05.614Z,98514.94
2022-10-01T23:05:54.679Z,98420.75
2022-10-01T23:08:33.522Z,98565.66
2022-10-01T23:11:11.229Z,98404.09
2022-10-01T23:13:44.657Z,98537.63
2022-10-01T23:16:23.685Z,98500.94
2022-10-01T23:19:00.575Z,98513.44
2022-10-01T23:21:50.394Z,98526.16
2022-10-01T23:24:34.849Z,98496.28
2022-10-01T23:27:37.007Z,98528.44
2022-10-01T23:30:21.872Z,98156.44
2022-10-01T23:33:19.073Z,98522.94
2022-10-01T23:36:05.019Z,98515.59
2022-10-01T23:38:31.447Z,98503.91
2022-10-01T23:41:11.426Z,98410.81
2022-10-01T23:43:43.928Z,98407.41
2022-10-01T23:46:13.512Z,98497.81
2022-10-01T23:49:26.213Z,98482.81
2022-10-01T23:52:02.208Z,98480.69
2022-10-01T23:54:54.206Z,98475.63
2022-10-01T23:57:34.024Z,98467.75
